sensor_id;sensor_type;location;lat;lon;timestamp;temperature;humidity
8269;DHT22;4174;48.304;16.364;2022-12-17T00:05:53;1.80;99.90
8269;DHT22;4174;48.304;16.364;2022-12-17T00:12:02;2.00;99.90
8269;DHT22;4174;48.304;16.364;2022-12-17T00:18:12;2.00;99.90
8269;DHT22;4174;48.304;16.364;2022-12-17T00:24:21;2.00;99.90
8269;DHT22;4174;48.304;16.364;2022-12-17T00:30:29;1.90;99.90
8269;DHT22;4174;48.304;16.364;2022-12-17T00:36:39;2.00;99.90
8269;DHT22;4174;48.304;16.364;2022-12-17T00:42:57;2.10;99.90
8269;DHT22;4174;48.304;16.364;2022-12-17T00:48:55;2.00;99.90
8269;DHT22;4174;48.304;16.364;2022-12-17T00:55:04;1.90;99.90
8269;DHT22;4174;48.304;16.364;2022-12-17T01:01:14;1.80;99.90
8269;DHT22;4174;48.304;16.364;2022-12-17T01:07:23;1.70;99.90
8269;DHT22;4174;48.304;16.364;2022-12-17T01:13:32;1.70;99.90
8269;DHT22;4174;48.304;16.364;2022-12-17T01:19:41;1.70;99.90
8269;DHT22;4174;48.304;16.364;2022-12-17T01:25:54;1.70;99.90
8269;DHT22;4174;48.304;16.364;2022-12-17T01:32:04;1.70;99.90
8269;DHT22;4174;48.304;16.364;2022-12-17T01:38:13;1.70;99.90
8269;DHT22;4174;48.304;16.364;2022-12-17T01:50:55;1.60;99.90
8269;DHT22;4174;48.304;16.364;2022-12-17T01:57:03;1.50;99.90
8269;DHT22;4174;48.304;16.364;2022-12-17T02:03:14;1.30;99.90
8269;DHT22;4174;48.304;16.364;2022-12-17T02:09:28;1.40;99.90
8269;DHT22;4174;48.304;16.364;2022-12-17T02:15:43;1.60;99.90
8269;DHT22;4174;48.304;16.364;2022-12-17T02:21:50;1.50;99.90
8269;DHT22;4174;48.304;16.364;2022-12-17T02:27:57;1.60;99.90
8269;DHT22;4174;48.304;16.364;2022-12-17T02:34:06;1.80;99.90
8269;DHT22;4174;48.304;16.364;2022-12-17T02:40:17;1.70;99.90
8269;DHT22;4174;48.304;16.364;2022-12-17T02:46:25;1.90;99.90
8269;DHT22;4174;48.304;16.364;2022-12-17T02:52:35;1.80;99.90
8269;DHT22;4174;48.304;16.364;2022-12-17T02:58:44;1.90;99.90
8269;DHT22;4174;48.304;16.364;2022-12-17T03:04:53;1.70;99.90
8269;DHT22;4174;48.304;16.364;2022-12-17T03:11:02;1.90;99.90
8269;DHT22;4174;48.304;16.364;2022-12-17T03:17:11;1.90;99.90
8269;DHT22;4174;48.304;16.364;2022-12-17T03:23:20;1.90;99.90
8269;DHT22;4174;48.304;16.364;2022-12-17T03:29:29;1.80;99.90
8269;DHT22;4174;48.304;16.364;2022-12-17T03:35:38;1.80;99.90
8269;DHT22;4174;48.304;16.364;2022-12-17T03:41:47;1.80;99.90
8269;DHT22;4174;48.304;16.364;2022-12-17T03:48:03;2.00;99.90
8269;DHT22;4174;48.304;16.364;2022-12-17T03:54:11;2.00;99.90
8269;DHT22;4174;48.304;16.364;2022-12-17T04:00:20;1.90;99.90
8269;DHT22;4174;48.304;16.364;2022-12-17T04:06:30;1.80;99.90
8269;DHT22;4174;48.304;16.364;2022-12-17T04:12:39;1.80;99.90
8269;DHT22;4174;48.304;16.364;2022-12-17T04:18:48;1.90;99.90
8269;DHT22;4174;48.304;16.364;2022-12-17T04:24:57;1.90;99.90
8269;DHT22;4174;48.304;16.364;2022-12-17T04:31:06;1.80;99.90
8269;DHT22;4174;48.304;16.364;2022-12-17T04:37:15;1.90;99.90
8269;DHT22;4174;48.304;16.364;2022-12-17T04:43:24;1.70;99.90
8269;DHT22;4174;48.304;16.364;2022-12-17T04:49:33;1.80;99.90
8269;DHT22;4174;48.304;16.364;2022-12-17T04:55:43;1.80;99.90
8269;DHT22;4174;48.304;16.364;2022-12-17T05:01:52;1.60;99.90
8269;DHT22;4174;48.304;16.364;2022-12-17T05:08:02;1.50;99.90
8269;DHT22;4174;48.304;16.364;2022-12-17T05:14:11;1.50;99.90
8269;DHT22;4174;48.304;16.364;2022-12-17T05:20:20;1.60;99.90
8269;DHT22;4174;48.304;16.364;2022-12-17T05:26:29;1.50;99.90
8269;DHT22;4174;48.304;16.364;2022-12-17T05:32:38;1.60;99.90
8269;DHT22;4174;48.304;16.364;2022-12-17T05:38:47;1.40;99.90
8269;DHT22;4174;48.304;16.364;2022-12-17T05:44:56;1.60;99.90
8269;DHT22;4174;48.304;16.364;2022-12-17T05:51:04;1.50;99.90
8269;DHT22;4174;48.304;16.364;2022-12-17T05:57:28;1.40;99.90
8269;DHT22;4174;48.304;16.364;2022-12-17T06:03:36;1.50;99.90
8269;DHT22;4174;48.304;16.364;2022-12-17T06:09:47;1.50;99.90
8269;DHT22;4174;48.304;16.364;2022-12-17T06:15:55;1.50;99.90
8269;DHT22;4174;48.304;16.364;2022-12-17T06:22:04;1.50;99.90
8269;DHT22;4174;48.304;16.364;2022-12-17T06:28:13;1.30;99.90
8269;DHT22;4174;48.304;16.364;2022-12-17T06:34:23;1.40;99.90
8269;DHT22;4174;48.304;16.364;2022-12-17T06:40:31;1.50;99.90
8269;DHT22;4174;48.304;16.364;2022-12-17T06:46:42;1.60;99.90
8269;DHT22;4174;48.304;16.364;2022-12-17T06:52:57;1.60;99.90
8269;DHT22;4174;48.304;16.364;2022-12-17T06:59:07;1.60;99.90
8269;DHT22;4174;48.304;16.364;2022-12-17T07:05:17;1.70;99.90
8269;DHT22;4174;48.304;16.364;2022-12-17T07:11:26;1.60;99.90
8269;DHT22;4174;48.304;16.364;2022-12-17T07:17:36;1.70;99.90
8269;DHT22;4174;48.304;16.364;2022-12-17T07:23:57;1.90;99.90
8269;DHT22;4174;48.304;16.364;2022-12-17T07:30:08;1.70;99.90
8269;DHT22;4174;48.304;16.364;2022-12-17T07:36:18;1.70;99.90
8269;DHT22;4174;48.304;16.364;2022-12-17T07:42:28;1.80;99.90
8269;DHT22;4174;48.304;16.364;2022-12-17T07:48:37;1.90;99.90
8269;DHT22;4174;48.304;16.364;2022-12-17T07:54:47;1.90;99.90
8269;DHT22;4174;48.304;16.364;2022-12-17T08:00:58;1.90;99.90
8269;DHT22;4174;48.304;16.364;2022-12-17T08:07:06;2.10;99.90
8269;DHT22;4174;48.304;16.364;2022-12-17T08:13:15;2.10;99.90
8269;DHT22;4174;48.304;16.364;2022-12-17T08:19:24;2.20;99.90
8269;DHT22;4174;48.304;16.364;2022-12-17T08:25:33;2.20;99.90
8269;DHT22;4174;48.304;16.364;2022-12-17T08:31:42;2.30;99.90
8269;DHT22;4174;48.304;16.364;2022-12-17T08:37:51;2.40;99.90
8269;DHT22;4174;48.304;16.364;2022-12-17T08:44:03;2.70;99.90
8269;DHT22;4174;48.304;16.364;2022-12-17T08:50:11;2.90;99.90
8269;DHT22;4174;48.304;16.364;2022-12-17T08:56:20;3.10;99.90
8269;DHT22;4174;48.304;16.364;2022-12-17T09:02:29;3.00;99.90
8269;DHT22;4174;48.304;16.364;2022-12-17T09:08:39;3.00;99.90
8269;DHT22;4174;48.304;16.364;2022-12-17T09:14:47;3.00;99.90
8269;DHT22;4174;48.304;16.364;2022-12-17T09:20:56;3.00;99.90
8269;DHT22;4174;48.304;16.364;2022-12-17T09:27:20;2.80;99.90
8269;DHT22;4174;48.304;16.364;2022-12-17T09:33:29;2.70;99.90
8269;DHT22;4174;48.304;16.364;2022-12-17T09:39:38;2.60;99.90
8269;DHT22;4174;48.304;16.364;2022-12-17T09:45:52;2.70;99.90
8269;DHT22;4174;48.304;16.364;2022-12-17T09:51:57;2.70;99.90
8269;DHT22;4174;48.304;16.364;2022-12-17T09:58:13;2.80;99.90
8269;DHT22;4174;48.304;16.364;2022-12-17T10:04:24;3.10;99.90
8269;DHT22;4174;48.304;16.364;2022-12-17T10:10:44;3.10;99.90
8269;DHT22;4174;48.304;16.364;2022-12-17T10:16:51;3.40;99.90
8269;DHT22;4174;48.304;16.364;2022-12-17T10:23:23;3.60;99.90
8269;DHT22;4174;48.304;16.364;2022-12-17T10:29:31;3.70;99.90
8269;DHT22;4174;48.304;16.364;2022-12-17T10:35:39;3.70;99.90
8269;DHT22;4174;48.304;16.364;2022-12-17T10:41:47;3.60;99.90
8269;DHT22;4174;48.304;16.364;2022-12-17T10:47:56;3.50;99.90
8269;DHT22;4174;48.304;16.364;2022-12-17T10:54:16;3.50;99.90
8269;DHT22;4174;48.304;16.364;2022-12-17T11:00:26;3.70;99.90
8269;DHT22;4174;48.304;16.364;2022-12-17T11:06:34;3.80;99.90
8269;DHT22;4174;48.304;16.364;2022-12-17T11:12:45;3.50;99.90
8269;DHT22;4174;48.304;16.364;2022-12-17T11:18:57;3.70;99.90
8269;DHT22;4174;48.304;16.364;2022-12-17T11:25:20;3.80;99.90
8269;DHT22;4174;48.304;16.364;2022-12-17T11:38:07;3.60;99.90
8269;DHT22;4174;48.304;16.364;2022-12-17T11:44:35;3.50;99.90
8269;DHT22;4174;48.304;16.364;2022-12-17T11:50:57;2.90;99.90
8269;DHT22;4174;48.304;16.364;2022-12-17T11:57:07;3.50;99.90
8269;DHT22;4174;48.304;16.364;2022-12-17T12:03:50;3.40;99.90
8269;DHT22;4174;48.304;16.364;2022-12-17T12:09:59;3.50;99.90
8269;DHT22;4174;48.304;16.364;2022-12-17T12:16:19;3.60;99.90
8269;DHT22;4174;48.304;16.364;2022-12-17T12:22:39;3.60;99.90
8269;DHT22;4174;48.304;16.364;2022-12-17T12:28:52;3.70;99.90
8269;DHT22;4174;48.304;16.364;2022-12-17T12:35:02;3.60;99.90
8269;DHT22;4174;48.304;16.364;2022-12-17T12:47:40;3.60;99.90
8269;DHT22;4174;48.304;16.364;2022-12-17T12:54:00;3.60;99.90
8269;DHT22;4174;48.304;16.364;2022-12-17T13:00:24;3.60;99.90
8269;DHT22;4174;48.304;16.364;2022-12-17T13:06:37;3.50;99.90
8269;DHT22;4174;48.304;16.364;2022-12-17T13:12:45;3.30;99.90
8269;DHT22;4174;48.304;16.364;2022-12-17T13:18:48;3.40;99.90
8269;DHT22;4174;48.304;16.364;2022-12-17T13:24:53;3.50;99.90
8269;DHT22;4174;48.304;16.364;2022-12-17T13:31:00;3.30;99.90
8269;DHT22;4174;48.304;16.364;2022-12-17T13:37:18;3.30;99.90
8269;DHT22;4174;48.304;16.364;2022-12-17T13:43:23;3.20;99.90
8269;DHT22;4174;48.304;16.364;2022-12-17T13:49:26;3.20;99.90
8269;DHT22;4174;48.304;16.364;2022-12-17T13:55:28;3.30;99.90
8269;DHT22;4174;48.304;16.364;2022-12-17T14:01:31;3.00;99.90
8269;DHT22;4174;48.304;16.364;2022-12-17T14:07:37;3.00;99.90
8269;DHT22;4174;48.304;16.364;2022-12-17T14:13:37;3.10;99.90
8269;DHT22;4174;48.304;16.364;2022-12-17T14:19:42;2.90;99.90
8269;DHT22;4174;48.304;16.364;2022-12-17T14:25:45;2.90;99.90
8269;DHT22;4174;48.304;16.364;2022-12-17T14:31:53;2.70;99.90
8269;DHT22;4174;48.304;16.364;2022-12-17T14:37:55;2.70;99.90
8269;DHT22;4174;48.304;16.364;2022-12-17T14:43:59;2.60;99.90
8269;DHT22;4174;48.304;16.364;2022-12-17T14:50:06;2.70;99.90
8269;DHT22;4174;48.304;16.364;2022-12-17T14:56:26;2.50;99.90
8269;DHT22;4174;48.304;16.364;2022-12-17T15:02:30;2.60;99.90
8269;DHT22;4174;48.304;16.364;2022-12-17T15:08:35;2.50;99.90
8269;DHT22;4174;48.304;16.364;2022-12-17T15:14:37;2.40;99.90
8269;DHT22;4174;48.304;16.364;2022-12-17T15:20:41;2.40;99.90
8269;DHT22;4174;48.304;16.364;2022-12-17T15:26:45;2.30;99.90
8269;DHT22;4174;48.304;16.364;2022-12-17T15:32:48;2.30;99.90
8269;DHT22;4174;48.304;16.364;2022-12-17T15:38:54;2.10;99.90
8269;DHT22;4174;48.304;16.364;2022-12-17T15:44:57;2.10;99.90
8269;DHT22;4174;48.304;16.364;2022-12-17T15:51:01;2.10;99.90
8269;DHT22;4174;48.304;16.364;2022-12-17T15:57:05;2.00;99.90
8269;DHT22;4174;48.304;16.364;2022-12-17T16:03:08;1.90;99.90
8269;DHT22;4174;48.304;16.364;2022-12-17T16:09:12;2.00;99.90
8269;DHT22;4174;48.304;16.364;2022-12-17T16:15:15;1.70;99.90
8269;DHT22;4174;48.304;16.364;2022-12-17T16:21:19;1.90;99.90
8269;DHT22;4174;48.304;16.364;2022-12-17T16:27:23;2.10;99.90
8269;DHT22;4174;48.304;16.364;2022-12-17T16:33:30;2.10;99.90
8269;DHT22;4174;48.304;16.364;2022-12-17T16:39:33;2.00;99.90
8269;DHT22;4174;48.304;16.364;2022-12-17T16:45:44;1.80;99.90
8269;DHT22;4174;48.304;16.364;2022-12-17T16:51:41;1.80;99.90
8269;DHT22;4174;48.304;16.364;2022-12-17T16:57:45;1.80;99.90
8269;DHT22;4174;48.304;16.364;2022-12-17T17:03:49;1.60;99.90
8269;DHT22;4174;48.304;16.364;2022-12-17T17:09:53;1.40;99.90
8269;DHT22;4174;48.304;16.364;2022-12-17T17:15:56;1.40;99.90
8269;DHT22;4174;48.304;16.364;2022-12-17T17:22:00;1.30;99.90
8269;DHT22;4174;48.304;16.364;2022-12-17T17:28:04;1.10;99.90
8269;DHT22;4174;48.304;16.364;2022-12-17T17:34:09;0.90;99.90
8269;DHT22;4174;48.304;16.364;2022-12-17T17:40:12;1.20;99.90
8269;DHT22;4174;48.304;16.364;2022-12-17T17:46:16;1.20;99.90
8269;DHT22;4174;48.304;16.364;2022-12-17T17:52:19;1.30;99.90
8269;DHT22;4174;48.304;16.364;2022-12-17T17:58:22;1.00;99.90
8269;DHT22;4174;48.304;16.364;2022-12-17T18:04:26;1.10;99.90
8269;DHT22;4174;48.304;16.364;2022-12-17T18:10:29;1.00;99.90
8269;DHT22;4174;48.304;16.364;2022-12-17T18:16:37;1.10;99.90
8269;DHT22;4174;48.304;16.364;2022-12-17T18:22:43;1.20;99.90
8269;DHT22;4174;48.304;16.364;2022-12-17T18:28:46;0.90;99.90
8269;DHT22;4174;48.304;16.364;2022-12-17T18:34:49;0.90;99.90
8269;DHT22;4174;48.304;16.364;2022-12-17T18:40:53;1.00;99.90
8269;DHT22;4174;48.304;16.364;2022-12-17T18:46:56;0.90;99.90
8269;DHT22;4174;48.304;16.364;2022-12-17T18:52:59;0.90;99.90
8269;DHT22;4174;48.304;16.364;2022-12-17T18:59:02;1.00;99.90
8269;DHT22;4174;48.304;16.364;2022-12-17T19:05:05;1.00;99.90
8269;DHT22;4174;48.304;16.364;2022-12-17T19:11:12;0.90;99.90
8269;DHT22;4174;48.304;16.364;2022-12-17T19:17:12;0.90;99.90
8269;DHT22;4174;48.304;16.364;2022-12-17T19:23:16;0.90;99.90
8269;DHT22;4174;48.304;16.364;2022-12-17T19:29:20;0.80;99.90
8269;DHT22;4174;48.304;16.364;2022-12-17T19:35:23;0.90;99.90
8269;DHT22;4174;48.304;16.364;2022-12-17T19:41:26;0.90;99.90
8269;DHT22;4174;48.304;16.364;2022-12-17T19:47:29;0.90;99.90
8269;DHT22;4174;48.304;16.364;2022-12-17T19:53:33;1.00;99.90
8269;DHT22;4174;48.304;16.364;2022-12-17T19:59:35;1.10;99.90
8269;DHT22;4174;48.304;16.364;2022-12-17T20:05:41;1.30;99.90
8269;DHT22;4174;48.304;16.364;2022-12-17T20:11:44;1.60;99.90
8269;DHT22;4174;48.304;16.364;2022-12-17T20:17:47;1.70;99.90
8269;DHT22;4174;48.304;16.364;2022-12-17T20:23:51;1.80;99.90
8269;DHT22;4174;48.304;16.364;2022-12-17T20:29:54;1.90;99.90
8269;DHT22;4174;48.304;16.364;2022-12-17T20:36:05;2.00;99.90
8269;DHT22;4174;48.304;16.364;2022-12-17T20:42:07;2.00;99.90
8269;DHT22;4174;48.304;16.364;2022-12-17T20:48:10;2.10;99.90
8269;DHT22;4174;48.304;16.364;2022-12-17T20:54:14;2.10;99.90
8269;DHT22;4174;48.304;16.364;2022-12-17T21:00:17;2.00;99.90
8269;DHT22;4174;48.304;16.364;2022-12-17T21:06:22;2.10;99.90
8269;DHT22;4174;48.304;16.364;2022-12-17T21:12:26;2.10;99.90
8269;DHT22;4174;48.304;16.364;2022-12-17T21:18:30;2.30;99.90
8269;DHT22;4174;48.304;16.364;2022-12-17T21:24:32;2.40;99.90
8269;DHT22;4174;48.304;16.364;2022-12-17T21:30:36;2.50;99.90
8269;DHT22;4174;48.304;16.364;2022-12-17T21:36:39;2.50;99.90
8269;DHT22;4174;48.304;16.364;2022-12-17T21:42:42;2.50;99.90
8269;DHT22;4174;48.304;16.364;2022-12-17T21:48:52;2.30;99.90
8269;DHT22;4174;48.304;16.364;2022-12-17T21:54:55;2.30;99.90
8269;DHT22;4174;48.304;16.364;2022-12-17T22:01:06;2.40;99.90
8269;DHT22;4174;48.304;16.364;2022-12-17T22:07:02;2.40;99.90
8269;DHT22;4174;48.304;16.364;2022-12-17T22:13:06;2.30;99.90
8269;DHT22;4174;48.304;16.364;2022-12-17T22:19:16;2.30;99.90
8269;DHT22;4174;48.304;16.364;2022-12-17T22:25:17;2.30;99.90
8269;DHT22;4174;48.304;16.364;2022-12-17T22:31:20;2.20;99.90
8269;DHT22;4174;48.304;16.364;2022-12-17T22:37:29;2.10;99.90
8269;DHT22;4174;48.304;16.364;2022-12-17T22:43:33;2.00;99.90
8269;DHT22;4174;48.304;16.364;2022-12-17T22:49:35;2.00;99.90
8269;DHT22;4174;48.304;16.364;2022-12-17T22:55:39;1.70;99.90
8269;DHT22;4174;48.304;16.364;2022-12-17T23:01:42;1.60;99.90
8269;DHT22;4174;48.304;16.364;2022-12-17T23:07:45;1.60;99.90
8269;DHT22;4174;48.304;16.364;2022-12-17T23:13:48;1.70;99.90
8269;DHT22;4174;48.304;16.364;2022-12-17T23:19:52;1.50;99.90
8269;DHT22;4174;48.304;16.364;2022-12-17T23:25:56;1.50;99.90
8269;DHT22;4174;48.304;16.364;2022-12-17T23:32:00;1.40;99.90
8269;DHT22;4174;48.304;16.364;2022-12-17T23:38:04;1.40;99.90
8269;DHT22;4174;48.304;16.364;2022-12-17T23:44:07;1.30;99.90
8269;DHT22;4174;48.304;16.364;2022-12-17T23:50:11;1.20;99.90
8269;DHT22;4174;48.304;16.364;2022-12-17T23:56:15;1.10;99.90
